Time;durP1;ratioP1;P1;durP2;ratioP2;P2;SDS_P1;SDS_P2;PMS_P1;PMS_P2;Temp;Humidity;BMP_temperature;BMP_pressure;BME280_temperature;BME280_humidity;BME280_pressure;Samples;Min_cycle;Max_cycle;Signal;HPM_P1;HPM_P2
2022/06/25 00:00:40;;;;;;;15.13;9.88;;;16.20;1.00;;;17.23;100.00;99348.72;5040773;27;119352;-78
2022/06/25 00:03:09;;;;;;;15.55;9.85;;;16.20;1.00;;;17.22;100.00;99346.34;5007375;27;129862;-78
2022/06/25 00:05:37;;;;;;;17.67;10.65;;;16.10;1.00;;;17.20;100.00;99348.63;5040000;27;129892;-77
2022/06/25 00:08:05;;;;;;;14.80;10.30;;;16.20;1.00;;;17.16;100.00;99356.78;5040362;27;119424;-79
2022/06/25 00:10:36;;;;;;;17.50;11.48;;;16.20;1.00;;;17.15;100.00;99354.41;5026519;27;118752;-79
2022/06/25 00:13:03;;;;;;;16.35;11.23;;;16.20;9.90;;;17.07;100.00;99358.94;5043060;27;129288;-79
2022/06/25 00:15:32;;;;;;;15.43;10.27;;;16.20;44.80;;;17.04;100.00;99362.41;5041578;27;129405;-79
2022/06/25 00:18:00;;;;;;;17.02;10.98;;;16.20;72.20;;;17.01;100.00;99361.16;5041319;27;119861;-78
2022/06/25 00:20:29;;;;;;;14.77;9.95;;;16.20;82.20;;;17.02;100.00;99370.19;5041407;27;119788;-78
2022/06/25 00:22:57;;;;;;;13.85;10.15;;;16.10;88.00;;;17.00;100.00;99369.75;5040502;27;130473;-79
2022/06/25 00:25:26;;;;;;;16.42;9.82;;;16.10;94.60;;;16.98;100.00;99366.56;5040667;27;129507;-80
2022/06/25 00:27:56;;;;;;;13.38;10.02;;;16.00;98.90;;;16.95;100.00;99368.06;5042564;27;124880;-78
2022/06/25 00:30:25;;;;;;;12.88;9.93;;;16.00;99.90;;;16.94;100.00;99373.91;5025581;27;122572;-80
2022/06/25 00:32:54;;;;;;;15.55;10.30;;;16.00;99.90;;;16.89;100.00;99370.31;5041485;27;131751;-77
2022/06/25 00:35:22;;;;;;;12.32;8.82;;;16.00;99.90;;;16.90;100.00;99376.56;5024901;27;128687;-78
2022/06/25 00:37:52;;;;;;;15.40;9.80;;;16.00;99.90;;;16.88;100.00;99374.19;5039986;27;119845;-78
2022/06/25 00:40:21;;;;;;;12.98;9.18;;;16.00;99.90;;;16.88;100.00;99379.69;5024585;27;118512;-77
2022/06/25 00:42:51;;;;;;;13.82;8.68;;;15.90;99.90;;;16.87;100.00;99382.78;5038788;27;131603;-78
2022/06/25 00:45:22;;;;;;;13.60;9.00;;;15.90;99.90;;;16.84;100.00;99383.47;5039767;27;129580;-77
2022/06/25 00:47:51;;;;;;;12.75;9.30;;;15.90;99.90;;;16.83;100.00;99388.16;5021931;27;119607;-79
2022/06/25 00:50:19;;;;;;;15.10;8.95;;;15.80;99.90;;;16.80;100.00;99385.34;5038377;27;119721;-78
2022/06/25 00:52:53;;;;;;;14.15;9.15;;;15.80;99.90;;;16.77;100.00;99388.78;5023044;27;128646;-76
2022/06/25 00:55:25;;;;;;;14.95;9.82;;;15.70;99.90;;;16.70;100.00;99384.72;5023364;27;129268;-76
2022/06/25 00:57:54;;;;;;;11.95;9.80;;;15.70;99.90;;;16.64;100.00;99390.81;5024418;27;118789;-76
2022/06/25 01:00:24;;;;;;;14.40;10.75;;;15.60;99.90;;;16.58;100.00;99386.75;5024274;27;119081;-77
2022/06/25 01:02:53;;;;;;;12.98;9.55;;;15.60;99.90;;;16.54;100.00;99386.66;5020654;27;129810;-76
2022/06/25 01:05:21;;;;;;;13.45;8.70;;;15.60;99.90;;;16.50;100.00;99389.34;5041402;27;129141;-76
2022/06/25 01:07:51;;;;;;;11.80;9.32;;;15.60;99.90;;;16.50;100.00;99391.25;5021056;27;119710;-77
2022/06/25 01:10:20;;;;;;;12.75;9.23;;;15.50;99.90;;;16.48;100.00;99399.81;5021470;27;120319;-78
2022/06/25 01:12:48;;;;;;;11.57;8.45;;;15.50;99.90;;;16.48;100.00;99394.34;5023783;27;129637;-78
2022/06/25 01:15:20;;;;;;;11.90;8.68;;;15.50;99.90;;;16.47;100.00;99392.78;5021280;27;130893;-78
2022/06/25 01:17:53;;;;;;;15.85;9.23;;;15.50;99.90;;;16.49;100.00;99390.47;5023253;27;120988;-77
2022/06/25 01:20:25;;;;;;;12.07;8.60;;;15.50;99.90;;;16.47;100.00;99392.78;5041105;27;121566;-78
2022/06/25 01:22:56;;;;;;;14.02;8.93;;;15.50;99.90;;;16.49;100.00;99393.22;5007218;27;129241;-78
2022/06/25 01:25:34;;;;;;;11.90;8.75;;;15.50;99.90;;;16.48;100.00;99394.34;5037854;27;129896;-79
2022/06/25 01:28:02;;;;;;;11.27;8.63;;;15.50;99.90;;;16.47;100.00;99403.72;5039305;27;119381;-78
2022/06/25 01:30:31;;;;;;;12.93;8.90;;;15.60;99.90;;;16.49;100.00;99400.66;5007311;27;118589;-77
2022/06/25 01:33:00;;;;;;;12.73;8.45;;;15.60;99.90;;;16.50;100.00;99403.03;5023713;27;130142;-77
2022/06/25 01:35:29;;;;;;;12.70;9.20;;;15.60;99.90;;;16.54;100.00;99403.09;5021030;27;129807;-75
2022/06/25 01:37:59;;;;;;;10.80;8.55;;;15.50;99.90;;;16.52;100.00;99408.94;5006816;27;119823;-77
2022/06/25 01:40:33;;;;;;;11.10;8.32;;;15.50;99.90;;;16.52;100.00;99399.94;5041592;27;119905;-77
2022/06/25 01:43:02;;;;;;;11.05;8.27;;;15.50;99.90;;;16.51;100.00;99404.59;5037560;27;130152;-78
2022/06/25 01:45:34;;;;;;;9.60;7.60;;;15.50;99.90;;;16.50;100.00;99408.50;5020130;27;129792;-77
2022/06/25 01:48:05;;;;;;;11.57;8.73;;;15.40;99.90;;;16.49;100.00;99412.38;5007078;27;118703;-80
2022/06/25 01:50:35;;;;;;;14.75;9.10;;;15.50;99.90;;;16.47;100.00;99417.44;5023914;27;119689;-78
2022/06/25 01:53:06;;;;;;;16.50;8.88;;;15.60;99.90;;;16.50;100.00;99403.03;5006431;27;129075;-78
2022/06/25 01:55:35;;;;;;;11.50;8.48;;;15.60;99.90;;;16.54;100.00;99417.59;5043157;27;130260;-79
2022/06/25 01:58:04;;;;;;;11.02;8.65;;;15.60;99.90;;;16.60;100.00;99420.88;5027249;27;118100;-77
2022/06/25 02:00:34;;;;;;;11.60;8.02;;;15.60;99.90;;;16.64;100.00;99405.31;5010904;27;119369;-76
2022/06/25 02:03:08;;;;;;;12.00;8.02;;;15.60;99.90;;;16.69;100.00;99415.22;5040514;27;129852;-75
2022/06/25 02:08:29;;;;;;;10.73;8.38;;;15.60;99.90;;;16.77;100.00;99406.00;5022273;27;121761;-75
2022/06/25 02:10:58;;;;;;;13.15;7.47;;;15.60;99.90;;;16.84;100.00;99411.69;5043771;27;121646;-77
2022/06/25 02:13:28;;;;;;;13.93;8.10;;;15.70;99.90;;;16.94;100.00;99415.03;5026416;27;128912;-76
2022/06/25 02:15:57;;;;;;;12.35;8.55;;;15.70;99.90;;;16.99;100.00;99412.03;5026597;27;129860;-78
2022/06/25 02:18:27;;;;;;;11.15;8.43;;;15.80;99.90;;;17.07;100.00;99419.25;5026874;27;119505;-77
2022/06/25 02:20:57;;;;;;;13.88;8.00;;;15.90;99.90;;;17.15;100.00;99409.25;5023998;27;119567;-79
2022/06/25 02:23:27;;;;;;;12.25;7.90;;;15.90;99.90;;;17.23;100.00;99411.78;5009151;27;128908;-77
2022/06/25 02:25:58;;;;;;;13.13;7.28;;;16.00;99.90;;;17.35;100.00;99404.59;5026858;27;129160;-76
2022/06/25 02:28:28;;;;;;;11.05;8.50;;;16.10;99.90;;;17.46;100.00;99408.34;5027070;27;119434;-76
2022/06/25 02:30:59;;;;;;;17.50;7.78;;;16.20;99.60;;;17.58;100.00;99410.16;5041599;27;119335;-76
2022/06/25 02:33:28;;;;;;;12.27;7.32;;;16.20;42.60;;;17.67;100.00;99412.69;5025403;27;128769;-76
2022/06/25 02:35:58;;;;;;;8.73;7.35;;;16.30;1.00;;;17.75;100.00;99414.44;5026021;27;129239;-77
2022/06/25 02:38:28;;;;;;;10.35;6.97;;;16.30;1.00;;;17.82;100.00;99403.56;5026646;27;118963;-76
2022/06/25 02:40:59;;;;;;;9.57;7.65;;;16.40;1.00;;;17.87;100.00;99408.78;5023371;28;118926;-75
2022/06/25 02:43:32;;;;;;;10.80;7.00;;;16.40;1.00;;;17.93;100.00;99399.09;5002556;28;130312;-76
2022/06/25 02:46:14;;;;;;;10.90;6.57;;;16.40;1.00;;;18.03;100.00;99408.72;5005844;28;129158;-78
2022/06/25 02:48:43;;;;;;;12.70;7.10;;;16.50;1.00;;;18.04;100.00;99406.75;5003003;28;119748;-75
2022/06/25 02:51:14;;;;;;;9.60;7.30;;;16.50;1.00;;;18.10;100.00;99408.06;5023302;28;119457;-77
2022/06/25 02:53:44;;;;;;;8.85;7.28;;;16.50;1.00;;;18.13;100.00;99408.09;5002750;28;129861;-78
2022/06/25 02:58:59;;;;;;;8.98;6.25;;;16.60;1.00;;;18.46;99.16;99405.94;5019362;28;122065;-79
2022/06/25 03:01:35;;;;;;;10.82;6.40;;;16.80;1.00;;;18.52;98.69;99406.44;5005839;28;122105;-77
2022/06/25 03:04:04;;;;;;;8.88;6.70;;;16.90;1.00;;;18.64;98.53;99409.75;5019271;28;130023;-78
2022/06/25 03:06:32;;;;;;;11.07;6.93;;;16.90;1.00;;;18.89;97.35;99414.91;5021894;27;129384;-78
2022/06/25 03:09:03;;;;;;;13.35;6.43;;;17.10;1.00;;;19.50;96.80;99412.19;5021159;28;119922;-78
2022/06/25 03:11:31;;;;;;;9.02;5.55;;;17.60;1.00;;;21.15;90.17;99415.75;4989918;28;119325;-78
2022/06/25 03:14:01;;;;;;;7.82;4.78;;;18.80;1.00;;;22.87;79.00;99409.91;5002734;28;130507;-78
2022/06/25 03:16:33;;;;;;;7.13;4.82;;;19.60;1.00;;;24.37;70.38;99418.84;5019804;28;129625;-79
2022/06/25 03:19:02;;;;;;;8.68;4.97;;;20.30;1.00;;;25.59;63.03;99424.47;5022735;28;119094;-77
2022/06/25 03:21:40;;;;;;;5.90;4.60;;;20.20;99.90;;;26.92;59.04;99418.97;5020695;28;120037;-79
2022/06/25 03:24:11;;;;;;;7.18;4.20;;;21.00;99.90;;;28.03;54.52;99416.00;4986937;28;130657;-78
2022/06/25 03:26:39;;;;;;;7.70;4.30;;;21.60;99.90;;;28.45;52.44;99422.56;5002431;28;129801;-77
2022/06/25 03:29:09;;;;;;;6.88;4.60;;;21.50;99.90;;;28.15;51.89;99415.31;5005643;28;119620;-77
2022/06/25 03:31:39;;;;;;;7.20;4.38;;;21.40;99.90;;;27.43;53.64;99416.84;5002115;28;119789;-78
2022/06/25 03:34:34;;;;;;;8.50;4.90;;;20.80;99.90;;;26.76;56.00;99419.66;4989005;28;130091;-79
2022/06/25 03:37:03;;;;;;;8.45;4.97;;;20.60;99.90;;;25.98;57.88;99423.97;5004904;28;129256;-77
2022/06/25 03:39:33;;;;;;;9.77;5.30;;;20.00;99.90;;;25.48;60.18;99424.59;5028331;27;119651;-77
2022/06/25 03:42:03;;;;;;;6.78;5.28;;;20.00;99.90;;;25.05;62.31;99423.03;5025695;27;119696;-77
2022/06/25 03:44:45;;;;;;;6.35;4.95;;;20.10;99.90;;;24.69;63.79;99431.69;5021782;27;130267;-77
2022/06/25 03:47:31;;;;;;;8.43;5.30;;;20.10;99.90;;;24.19;65.45;99429.25;5024728;27;128941;-77
2022/06/25 03:50:01;;;;;;;7.90;5.65;;;20.30;99.90;;;23.76;68.04;99426.69;5020880;27;122203;-81
2022/06/25 03:52:31;;;;;;;9.00;6.57;;;20.40;99.90;;;23.50;69.55;99426.00;5021986;27;122291;-78
2022/06/25 03:55:02;;;;;;;7.70;5.93;;;20.20;99.90;;;23.08;70.97;99425.72;5041723;27;129724;-81
2022/06/25 03:57:35;;;;;;;7.75;5.05;;;20.30;99.90;;;22.85;72.10;99428.88;5038793;27;130123;-77
2022/06/25 04:00:25;;;;;;;7.65;5.15;;;20.40;99.90;;;22.36;73.58;99430.44;5039295;27;120456;-78
2022/06/25 04:03:01;;;;;;;7.93;4.95;;;20.20;99.90;;;21.97;76.21;99436.66;5025140;27;119083;-79
2022/06/25 04:05:52;;;;;;;10.32;5.82;;;20.10;99.90;;;22.04;76.33;99426.41;5024787;27;129278;-78
2022/06/25 04:08:37;;;;;;;8.95;5.38;;;20.30;99.90;;;22.24;75.93;99435.13;5042077;27;129216;-76
2022/06/25 04:11:10;;;;;;;8.82;5.38;;;20.50;99.90;;;22.36;76.16;99430.44;5008355;27;118549;-78
2022/06/25 04:13:45;;;;;;;8.90;5.38;;;20.60;99.90;;;22.18;76.48;99436.72;5025139;27;119337;-79
2022/06/25 04:16:16;;;;;;;7.47;4.93;;;20.50;99.90;;;22.04;76.99;99442.19;5037162;27;130287;-78
2022/06/25 04:18:45;;;;;;;8.98;5.57;;;20.50;99.90;;;22.15;77.41;99442.22;5040588;27;129252;-78
2022/06/25 04:21:16;;;;;;;7.05;5.10;;;20.60;99.90;;;22.25;76.62;99433.97;5022569;27;119604;-77
2022/06/25 04:23:45;;;;;;;8.32;5.15;;;20.60;99.90;;;22.29;76.66;99441.47;5038316;27;119367;-75
2022/06/25 04:26:17;;;;;;;8.27;5.68;;;20.80;99.90;;;22.49;75.82;99445.47;5007839;27;129253;-77
2022/06/25 04:29:03;;;;;;;6.85;5.13;;;20.90;99.90;;;22.53;76.53;99451.81;5024678;27;129532;-78
2022/06/25 04:31:37;;;;;;;8.85;5.43;;;21.00;99.90;;;22.85;75.26;99448.25;5025106;27;119951;-77
2022/06/25 04:34:09;;;;;;;7.32;5.00;;;21.00;99.90;;;22.87;75.41;99459.69;5022066;27;119300;-76
2022/06/25 04:36:39;;;;;;;7.05;4.88;;;21.20;99.90;;;22.86;75.51;99447.06;5023983;27;128832;-77
2022/06/25 04:39:28;;;;;;;7.32;4.82;;;21.20;99.90;;;22.83;76.43;99447.84;5007521;27;128203;-76
2022/06/25 04:41:59;;;;;;;11.93;4.93;;;21.30;99.90;;;22.99;75.82;99450.22;5020126;27;122529;-78
2022/06/25 04:44:32;;;;;;;7.32;4.88;;;21.40;99.90;;;23.21;75.05;99455.75;5041329;27;121523;-77
2022/06/25 04:47:01;;;;;;;8.30;4.80;;;21.30;99.90;;;23.23;74.88;99456.13;5037751;27;130349;-77
2022/06/25 04:49:40;;;;;;;7.85;5.50;;;21.50;99.90;;;23.23;75.76;99459.69;5023966;27;129803;-76
2022/06/25 04:52:11;;;;;;;6.85;5.10;;;21.60;99.90;;;23.24;75.29;99461.28;5021510;27;120100;-75
2022/06/25 04:54:40;;;;;;;7.60;5.25;;;21.60;99.90;;;23.24;75.80;99455.72;5041169;27;119681;-75
2022/06/25 04:57:14;;;;;;;9.88;4.65;;;21.70;99.90;;;23.29;75.65;99468.38;5006971;27;129147;-76
2022/06/25 05:00:04;;;;;;;6.13;4.63;;;21.80;99.90;;;23.31;75.62;99458.50;5041692;27;129635;-77
2022/06/25 05:02:37;;;;;;;8.85;5.20;;;21.80;99.90;;;23.48;74.79;99464.38;5021225;27;119938;-77
2022/06/25 05:05:12;;;;;;;6.70;4.60;;;22.00;99.90;;;23.22;75.08;99463.66;5041585;27;118540;-77
2022/06/25 05:07:41;;;;;;;6.68;4.75;;;21.80;99.90;;;23.22;75.51;99471.16;5038278;27;130330;-75
2022/06/25 05:10:10;;;;;;;8.75;5.15;;;21.90;99.90;;;23.47;75.30;99469.13;5023258;27;130600;-77
2022/06/25 05:15:26;;;;;;;7.22;4.35;;;22.30;99.90;;;23.67;72.73;99466.69;5027536;27;117765;-76
2022/06/25 05:17:55;;;;;;;6.18;4.60;;;22.50;99.90;;;23.93;71.47;99456.31;5024669;27;130592;-77
2022/06/25 05:20:26;;;;;;;6.53;4.65;;;22.70;99.90;;;23.87;69.64;99463.47;5026814;27;129009;-77
2022/06/25 05:22:55;;;;;;;8.85;4.38;;;22.70;99.90;;;24.04;67.85;99473.69;5026858;27;119679;-76
2022/06/25 05:25:24;;;;;;;5.00;3.58;;;22.70;99.90;;;24.22;65.74;99467.25;5040209;27;119412;-77
2022/06/25 05:27:53;;;;;;;5.45;3.67;;;22.90;99.90;;;24.17;64.28;99473.25;5038328;27;129790;-76
2022/06/25 05:30:22;;;;;;;6.90;3.75;;;22.90;99.90;;;24.09;64.45;99480.00;5026191;27;130123;-75
2022/06/25 05:32:51;;;;;;;5.50;3.92;;;22.90;99.90;;;24.30;65.04;99474.34;5040966;27;122179;-76
2022/06/25 05:35:19;;;;;;;7.55;4.20;;;22.90;99.90;;;24.22;64.22;99467.25;5026860;27;121287;-76
2022/06/25 05:37:48;;;;;;;6.70;4.20;;;22.90;99.90;;;24.28;65.06;99465.63;5026640;27;128917;-76
2022/06/25 05:40:17;;;;;;;7.78;4.05;;;23.00;99.90;;;24.47;65.12;99472.66;5009812;27;128784;-74
2022/06/25 05:42:46;;;;;;;7.85;3.53;;;23.20;99.90;;;24.70;64.88;99469.34;5023702;27;119594;-77
2022/06/25 05:45:16;;;;;;;6.55;3.60;;;23.50;99.90;;;24.66;63.10;99468.56;5042072;27;120093;-75
2022/06/25 05:47:45;;;;;;;4.53;3.28;;;23.40;99.90;;;24.62;64.04;99462.28;5041754;27;130389;-77
2022/06/25 05:50:14;;;;;;;8.52;3.63;;;23.40;99.90;;;24.72;63.58;99461.38;5041899;27;130173;-77
2022/06/25 05:52:42;;;;;;;5.30;3.55;;;23.50;99.90;;;24.98;58.97;99461.97;5041933;27;119666;-73
2022/06/25 05:55:12;;;;;;;5.35;2.75;;;23.70;99.90;;;25.27;55.09;99467.25;5040552;27;120048;-77
2022/06/25 05:57:41;;;;;;;4.78;2.60;;;23.90;99.90;;;25.52;55.35;99472.53;5044791;27;129061;-75
2022/06/25 06:00:10;;;;;;;5.78;2.90;;;24.10;99.90;;;25.86;56.34;99479.31;5049729;27;129449;-76
2022/06/25 06:02:43;;;;;;;5.10;3.00;;;24.30;99.90;;;26.11;54.64;99479.78;5031713;27;118929;-78
2022/06/25 06:05:12;;;;;;;5.07;2.88;;;24.40;99.90;;;26.25;53.87;99491.94;5046756;27;120066;-76
2022/06/25 06:07:40;;;;;;;7.18;3.25;;;24.40;99.90;;;25.92;51.71;99488.78;5044653;27;129761;-74
2022/06/25 06:10:09;;;;;;;5.10;2.80;;;24.30;99.90;;;26.10;52.23;99483.78;5026646;27;129149;-77
2022/06/25 06:12:37;;;;;;;7.15;2.95;;;24.50;99.90;;;26.32;53.48;99489.06;5041945;27;119600;-75
2022/06/25 06:15:07;;;;;;;5.88;3.50;;;24.70;99.90;;;26.68;53.84;99491.34;5042089;27;119200;-77
2022/06/25 06:17:37;;;;;;;5.30;3.33;;;25.00;99.90;;;26.89;52.54;99492.97;5026540;27;129431;-77
2022/06/25 06:20:08;;;;;;;6.90;3.00;;;25.10;99.90;;;27.05;52.00;99483.94;5026008;27;128428;-78
2022/06/25 06:22:37;;;;;;;6.05;2.80;;;25.20;99.90;;;26.86;50.15;99488.25;5008660;27;122007;-76
2022/06/25 06:25:07;;;;;;;5.38;2.75;;;24.90;99.90;;;26.70;49.56;99486.91;5006586;27;122342;-75
2022/06/25 06:27:36;;;;;;;4.82;2.78;;;24.90;99.90;;;26.73;49.21;99491.63;5039262;27;129812;-77
2022/06/25 06:30:05;;;;;;;6.28;2.90;;;25.00;99.90;;;26.58;49.56;99486.69;5057177;27;128643;-77
2022/06/25 06:32:34;;;;;;;5.32;2.40;;;25.00;99.90;;;26.84;49.55;99490.69;5034868;27;119848;-76
2022/06/25 06:35:03;;;;;;;4.05;2.55;;;25.20;99.90;;;26.55;48.41;99497.47;5037831;27;119826;-75
2022/06/25 06:37:32;;;;;;;3.83;2.50;;;25.00;99.90;;;26.50;48.83;99489.56;5040171;27;130442;-79
2022/06/25 06:40:02;;;;;;;4.72;3.00;;;25.00;99.90;;;26.36;49.93;99500.91;5042213;27;129605;-76
2022/06/25 06:42:30;;;;;;;4.97;2.45;;;25.10;99.90;;;26.90;49.60;99495.34;5040237;27;119978;-77
2022/06/25 06:44:59;;;;;;;4.68;2.40;;;25.30;99.90;;;27.01;48.25;99489.59;5040379;27;119262;-79
2022/06/25 06:47:28;;;;;;;4.35;2.63;;;25.50;99.90;;;26.73;47.97;99496.41;5039319;27;130394;-77
2022/06/25 06:49:56;;;;;;;4.40;2.50;;;25.20;99.90;;;26.71;49.03;99498.84;5039557;27;129890;-75
2022/06/25 06:52:26;;;;;;;7.70;2.53;;;25.20;99.90;;;26.63;49.52;99497.34;5025407;27;118506;-78
2022/06/25 06:54:59;;;;;;;5.60;2.60;;;25.30;99.90;;;26.77;49.96;99499.94;5040983;27;119495;-76
2022/06/25 06:57:28;;;;;;;4.93;2.45;;;25.50;99.90;;;27.07;49.35;99501.03;5038899;27;129875;-76
2022/06/25 06:59:58;;;;;;;6.05;2.38;;;25.70;99.90;;;26.85;48.60;99498.63;5040471;27;129454;-78
2022/06/25 07:02:27;;;;;;;4.03;2.33;;;25.60;99.90;;;26.92;46.33;99496.91;5025969;27;119189;-78
2022/06/25 07:04:56;;;;;;;5.40;2.53;;;25.70;99.90;;;26.98;48.62;99506.38;5039210;27;119669;-77
2022/06/25 07:07:26;;;;;;;4.95;2.40;;;25.60;99.90;;;27.33;47.55;99495.81;5040207;27;130661;-77
2022/06/25 07:09:56;;;;;;;6.93;3.13;;;25.70;99.90;;;27.41;48.45;99489.72;5038682;27;129157;-77
2022/06/25 07:12:24;;;;;;;5.28;2.80;;;25.90;99.90;;;27.44;46.63;99493.63;5026240;27;121863;-76
2022/06/25 07:14:53;;;;;;;6.57;2.83;;;25.80;99.90;;;27.45;47.12;99489.63;5031927;27;122378;-77
2022/06/25 07:17:21;;;;;;;6.65;2.85;;;25.80;99.90;;;27.70;48.79;99493.94;5040261;27;129675;-77
2022/06/25 07:19:52;;;;;;;4.38;2.90;;;26.10;99.90;;;27.37;47.55;99502.13;5040349;27;129874;-78
2022/06/25 07:22:21;;;;;;;5.75;2.60;;;25.90;99.90;;;27.62;48.38;99494.06;5040647;27;119232;-75
2022/06/25 07:24:51;;;;;;;4.63;2.70;;;26.10;99.90;;;28.01;46.85;99490.94;5040806;27;119577;-73
2022/06/25 07:27:21;;;;;;;6.80;3.10;;;26.20;99.90;;;28.08;47.88;99485.19;5040117;27;129615;-77
2022/06/25 07:29:49;;;;;;;5.72;2.85;;;26.30;99.90;;;27.93;46.51;99491.06;5040892;27;130128;-77
2022/06/25 07:32:18;;;;;;;5.20;2.90;;;26.30;99.90;;;27.46;47.44;99485.63;5040729;27;119741;-77
2022/06/25 07:34:47;;;;;;;4.43;2.70;;;25.90;99.90;;;27.72;47.05;99474.78;5040386;27;120354;-77
2022/06/25 07:37:15;;;;;;;4.38;2.67;;;26.00;99.90;;;27.61;47.36;99475.78;5039170;27;130472;-78
2022/06/25 07:39:45;;;;;;;6.22;3.08;;;26.00;99.90;;;27.43;47.12;99481.69;5008038;27;128597;-78
2022/06/25 07:42:14;;;;;;;3.70;2.17;;;26.00;99.90;;;27.47;47.41;99478.84;5042153;27;118736;-76
2022/06/25 07:44:43;;;;;;;8.07;2.67;;;26.10;99.90;;;26.85;46.47;99487.47;5039294;27;119916;-76
2022/06/25 07:47:12;;;;;;;5.68;2.47;;;25.60;99.90;;;26.74;45.90;99489.66;5039870;27;130419;-75
2022/06/25 07:52:23;;;;;;;5.00;2.15;;;25.40;99.90;;;26.92;45.63;99496.91;5018311;27;119292;-79
2022/06/25 07:54:51;;;;;;;4.55;2.08;;;25.80;99.90;;;26.72;44.91;99495.66;5038849;27;119348;-83
2022/06/25 07:57:20;;;;;;;6.30;2.75;;;25.60;99.90;;;26.86;44.76;99494.59;5024754;27;128425;-79
2022/06/25 07:59:50;;;;;;;5.95;2.40;;;25.70;99.90;;;26.83;45.29;99497.44;5023593;27;129500;-80
2022/06/25 08:02:19;;;;;;;4.05;2.03;;;25.70;99.90;;;27.04;46.72;99497.09;5038193;27;123159;-80
2022/06/25 08:04:47;;;;;;;3.88;2.33;;;26.00;99.90;;;27.21;45.27;99495.22;5022544;27;120529;-74
2022/06/25 08:07:15;;;;;;;5.20;2.72;;;26.00;99.90;;;27.59;43.17;99485.78;5024648;27;129336;-81
2022/06/25 08:09:44;;;;;;;4.25;2.30;;;26.10;99.90;;;27.95;44.43;99491.44;5039038;27;129920;-80
2022/06/25 08:12:13;;;;;;;3.88;2.17;;;26.40;99.90;;;27.41;42.77;99484.13;5053295;27;119878;-76
2022/06/25 08:14:41;;;;;;;3.15;2.10;;;26.00;99.90;;;27.50;44.00;99486.34;5038423;27;119573;-79
2022/06/25 08:17:12;;;;;;;3.72;2.35;;;26.30;99.90;;;27.97;43.95;99486.22;5037283;27;130637;-79
2022/06/25 08:19:40;;;;;;;5.82;2.20;;;26.70;99.90;;;27.71;44.02;99498.31;5039850;27;130187;-79
2022/06/25 08:22:08;;;;;;;5.32;2.60;;;26.40;99.90;;;27.57;43.45;99491.78;5039101;27;119598;-79
2022/06/25 08:24:37;;;;;;;3.33;1.88;;;26.40;99.90;;;27.84;43.28;99488.06;5032960;27;119284;-78
2022/06/25 08:27:06;;;;;;;3.40;2.10;;;26.60;99.90;;;27.83;42.67;99486.50;5018223;27;129212;-76
2022/06/25 08:29:34;;;;;;;4.93;2.30;;;26.60;99.90;;;27.76;41.79;99497.78;5037075;27;129421;-75
2022/06/25 08:32:03;;;;;;;5.43;2.47;;;26.50;99.90;;;27.54;41.96;99491.88;5023858;27;119411;-79
2022/06/25 08:34:33;;;;;;;3.58;2.08;;;26.30;99.90;;;27.65;41.02;99491.66;5039203;27;119507;-75
2022/06/25 08:37:01;;;;;;;3.92;2.30;;;26.40;99.90;;;27.56;41.83;99484.63;5039071;27;130243;-81
2022/06/25 08:39:30;;;;;;;6.25;2.72;;;26.40;99.90;;;27.72;43.13;99491.50;5055680;27;129014;-75
2022/06/25 08:42:02;;;;;;;9.27;2.70;;;26.50;99.90;;;27.88;41.72;99494.38;5023981;27;118685;-76
2022/06/25 08:44:31;;;;;;;5.40;2.40;;;26.50;99.90;;;28.11;43.90;99478.75;5039930;27;119801;-79
2022/06/25 08:47:00;;;;;;;4.85;2.35;;;26.60;99.90;;;28.07;43.28;99489.22;5054607;27;129729;-80
2022/06/25 08:49:34;;;;;;;4.63;2.22;;;26.60;99.90;;;27.83;43.65;99482.91;5023954;27;129105;-75
2022/06/25 08:52:07;;;;;;;5.63;2.65;;;26.50;99.90;;;28.08;42.71;99490.78;5038196;27;122970;-81
2022/06/25 08:54:38;;;;;;;4.70;2.70;;;26.80;99.90;;;27.91;41.63;99487.94;5039658;27;122685;-79
2022/06/25 08:57:08;;;;;;;4.90;2.33;;;26.80;99.90;;;28.42;42.16;99484.84;5038798;27;129949;-76
2022/06/25 08:59:37;;;;;;;5.88;2.20;;;27.10;99.90;;;28.66;41.19;99491.09;5038566;27;129701;-81
2022/06/25 09:02:06;;;;;;;4.93;2.65;;;27.30;99.90;;;29.22;41.23;99481.72;5039375;27;119570;-79
2022/06/25 09:04:35;;;;;;;3.92;2.53;;;27.50;99.90;;;29.30;41.31;99490.72;5023389;27;118962;-79
2022/06/25 09:07:17;;;;;;;5.18;3.08;;;27.60;99.90;;;29.04;41.04;99493.31;5039085;27;129874;-75
2022/06/25 09:09:47;;;;;;;5.45;2.75;;;27.40;99.90;;;29.21;41.64;99496.13;5058017;27;128785;-78
2022/06/25 09:12:17;;;;;;;5.78;2.90;;;27.50;99.90;;;29.49;41.05;99494.59;5038995;27;119728;-78
2022/06/25 09:14:46;;;;;;;4.10;2.90;;;27.70;99.90;;;29.70;41.38;99490.41;5044239;27;120046;-79
2022/06/25 09:17:16;;;;;;;4.63;2.75;;;27.70;99.90;;;29.53;40.78;99505.66;5042135;27;129856;-76
2022/06/25 09:19:47;;;;;;;5.85;2.70;;;27.50;99.90;;;28.96;41.03;99497.53;5043801;27;130083;-76
2022/06/25 09:22:20;;;;;;;7.05;3.10;;;27.10;99.90;;;28.47;41.25;99486.31;5024488;27;119107;-78
2022/06/25 09:24:52;;;;;;;6.22;2.70;;;26.90;99.90;;;28.48;41.79;99479.53;5044754;27;119462;-78
2022/06/25 09:27:35;;;;;;;4.57;2.60;;;26.90;99.90;;;28.75;41.97;99487.69;5043604;27;130041;-79
2022/06/25 09:30:12;;;;;;;4.70;2.60;;;27.20;99.90;;;28.80;41.13;99480.81;5023084;27;128268;-75
2022/06/25 09:32:45;;;;;;;5.15;2.63;;;27.30;99.90;;;28.68;40.64;99482.28;5057926;27;119553;-80
2022/06/25 09:35:15;;;;;;;3.78;2.38;;;27.20;96.90;;;29.19;41.53;99476.22;5039547;27;119349;-82
2022/06/25 09:37:45;;;;;;;6.32;2.50;;;27.60;99.90;;;29.13;40.91;99477.97;5038437;27;129885;-78
2022/06/25 09:40:17;;;;;;;3.47;2.45;;;27.50;98.90;;;29.38;40.49;99489.28;5040313;27;129706;-77
2022/06/25 09:42:48;;;;;;;4.35;2.35;;;27.70;99.90;;;29.35;40.31;99478.97;5037474;27;122312;-77
2022/06/25 09:45:16;;;;;;;4.20;2.53;;;27.60;98.10;;;28.97;40.49;99482.34;5038365;27;121951;-78
2022/06/25 09:47:46;;;;;;;5.70;2.42;;;27.50;97.00;;;29.35;40.31;99486.59;5038481;27;130606;-78
2022/06/25 09:50:17;;;;;;;3.67;2.40;;;27.60;99.90;;;29.12;39.42;99487.56;5056981;27;128319;-75
2022/06/25 09:52:59;;;;;;;3.75;2.20;;;27.40;96.90;;;29.48;39.26;99481.06;5054083;27;119449;-75
2022/06/25 09:55:31;;;;;;;5.43;2.67;;;27.70;95.90;;;29.74;40.02;99488.28;5038821;27;119576;-76
2022/06/25 09:58:02;;;;;;;8.98;3.72;;;28.00;97.20;;;30.19;40.44;99480.25;5037899;27;129576;-79
2022/06/25 10:00:32;;;;;;;5.22;2.60;;;28.20;99.90;;;30.08;38.34;99472.94;5038802;27;129034;-78
2022/06/25 10:03:01;;;;;;;5.40;2.65;;;28.10;91.60;;;30.01;39.42;99462.00;5040260;27;118732;-78
2022/06/25 10:05:38;;;;;;;5.25;2.75;;;28.10;97.20;;;29.92;41.04;99479.41;5038439;27;119651;-76
2022/06/25 10:08:14;;;;;;;3.92;2.63;;;28.10;99.90;;;30.03;40.93;99473.50;5036551;27;130295;-78
2022/06/25 10:10:46;;;;;;;5.20;2.55;;;28.20;99.90;;;30.40;39.67;99465.59;5038124;27;129481;-81
2022/06/25 10:13:15;;;;;;;5.53;2.83;;;28.30;97.20;;;30.01;39.57;99466.78;5038502;27;119608;-78
2022/06/25 10:15:46;;;;;;;5.57;2.50;;;27.90;97.10;;;29.63;39.18;99461.88;5040735;27;118948;-80
2022/06/25 10:18:16;;;;;;;5.80;2.50;;;27.60;94.70;;;29.51;40.72;99457.81;5040173;27;130085;-78
2022/06/25 10:20:45;;;;;;;6.43;3.05;;;27.80;99.90;;;29.30;41.13;99457.19;5041150;27;129820;-77
2022/06/25 10:23:16;;;;;;;4.35;2.50;;;27.50;99.90;;;29.18;42.02;99452.28;5023361;27;119590;-79
2022/06/25 10:25:47;;;;;;;4.30;2.50;;;27.50;99.90;;;28.95;42.50;99451.28;5026839;27;119001;-75
2022/06/25 10:28:24;;;;;;;5.40;2.22;;;27.40;99.90;;;28.85;42.59;99457.94;5041120;27;130027;-76
2022/06/25 10:30:56;;;;;;;4.20;2.70;;;27.50;99.90;;;29.02;42.79;99456.69;5040964;27;130455;-76
2022/06/25 10:33:26;;;;;;;4.20;2.22;;;27.70;99.90;;;29.69;42.38;99460.09;5040475;27;121094;-78
2022/06/25 10:35:58;;;;;;;4.43;2.58;;;28.20;99.90;;;29.65;41.07;99454.59;5043183;27;122796;-82